Time;durP1;ratioP1;P1;durP2;ratioP2;P2;SDS_P1;SDS_P2;PMS_P1;PMS_P2;Temp;Humidity;BMP_temperature;BMP_pressure;BME280_temperature;BME280_humidity;BME280_pressure;Samples;Min_cycle;Max_cycle;Signal;HPM_P1;HPM_P2
2022/04/27 00:00:08;;;;;;;29.70;15.00;;;;;;;;;;5016410;28;20022;-85
2022/04/27 00:02:34;;;;;;;25.92;13.50;;;;;;;;;;5002782;28;20443;-84
2022/04/27 00:05:00;;;;;;;29.30;15.18;;;;;;;;;;5005676;28;20039;-86
2022/04/27 00:07:26;;;;;;;24.73;14.00;;;;;;;;;;5006258;28;20113;-86
2022/04/27 00:09:54;;;;;;;35.95;13.85;;;;;;;;;;5000607;28;20046;-85
2022/04/27 00:12:21;;;;;;;25.23;13.75;;;;;;;;;;5002978;28;20030;-86
2022/04/27 00:14:48;;;;;;;28.38;14.60;;;;;;;;;;5006707;28;20030;-85
2022/04/27 00:17:14;;;;;;;29.42;14.48;;;;;;;;;;5004867;28;20038;-86
2022/04/27 00:19:40;;;;;;;30.88;15.55;;;;;;;;;;5006837;28;20033;-85
2022/04/27 00:22:06;;;;;;;28.25;15.02;;;;;;;;;;5003312;28;20244;-86
2022/04/27 00:24:32;;;;;;;27.02;14.88;;;;;;;;;;4999932;28;20041;-86
2022/04/27 00:27:00;;;;;;;28.40;13.95;;;;;;;;;;5001180;28;20036;-86
2022/04/27 00:29:27;;;;;;;31.17;15.52;;;;;;;;;;5004684;28;20045;-85
2022/04/27 00:31:53;;;;;;;31.45;14.30;;;;;;;;;;5004678;28;20042;-85
2022/04/27 00:34:19;;;;;;;33.60;15.60;;;;;;;;;;5004495;28;20046;-85
2022/04/27 00:36:45;;;;;;;35.47;14.38;;;;;;;;;;5004015;28;20037;-85
2022/04/27 00:39:12;;;;;;;28.27;13.93;;;;;;;;;;5002286;28;20027;-85
2022/04/27 00:41:38;;;;;;;28.25;13.65;;;;;;;;;;5004457;28;20057;-85
2022/04/27 00:44:05;;;;;;;26.23;13.75;;;;;;;;;;5007059;28;21291;-86
2022/04/27 00:46:31;;;;;;;27.25;12.43;;;;;;;;;;5004919;28;20101;-84
2022/04/27 00:48:59;;;;;;;24.80;12.32;;;;;;;;;;5011580;28;20096;-84
2022/04/27 00:51:26;;;;;;;27.13;14.35;;;;;;;;;;5022462;28;20034;-84
2022/04/27 00:53:53;;;;;;;25.67;14.65;;;;;;;;;;5014053;28;20495;-85
2022/04/27 00:56:21;;;;;;;39.83;13.80;;;;;;;;;;5011343;28;20034;-85
2022/04/27 00:58:50;;;;;;;24.60;13.52;;;;;;;;;;5004272;28;20046;-84
2022/04/27 01:01:16;;;;;;;29.17;13.90;;;;;;;;;;5000257;28;20467;-86
2022/04/27 01:03:42;;;;;;;25.08;12.88;;;;;;;;;;5004032;28;20096;-85
2022/04/27 01:06:08;;;;;;;22.35;12.63;;;;;;;;;;5004307;28;20057;-85
2022/04/27 01:08:35;;;;;;;29.60;12.05;;;;;;;;;;5007941;28;20049;-85
2022/04/27 01:11:02;;;;;;;20.17;11.25;;;;;;;;;;5008485;28;20030;-85
2022/04/27 01:13:28;;;;;;;21.08;12.05;;;;;;;;;;5009151;28;20030;-86
2022/04/27 01:15:55;;;;;;;32.72;13.68;;;;;;;;;;5013636;28;20582;-85
2022/04/27 01:18:21;;;;;;;24.45;11.82;;;;;;;;;;4993995;28;20037;-86
2022/04/27 01:20:47;;;;;;;20.55;11.45;;;;;;;;;;5011803;28;20037;-85
2022/04/27 01:23:14;;;;;;;24.30;12.25;;;;;;;;;;5007999;28;20038;-85
2022/04/27 01:25:48;;;;;;;24.77;13.30;;;;;;;;;;5008678;28;20023;-85
2022/04/27 01:28:15;;;;;;;27.83;14.35;;;;;;;;;;5010994;28;20859;-84
2022/04/27 01:30:41;;;;;;;24.95;13.30;;;;;;;;;;5010506;28;20049;-86
2022/04/27 01:33:10;;;;;;;25.10;12.13;;;;;;;;;;5008839;28;20038;-85
2022/04/27 01:35:37;;;;;;;27.10;12.77;;;;;;;;;;5010448;28;20030;-85
2022/04/27 01:38:03;;;;;;;24.77;12.40;;;;;;;;;;5007965;28;20075;-85
2022/04/27 01:40:30;;;;;;;24.20;11.93;;;;;;;;;;5013317;28;20026;-85
2022/04/27 01:42:56;;;;;;;26.75;14.48;;;;;;;;;;5009916;28;20036;-85
2022/04/27 01:45:23;;;;;;;25.05;13.95;;;;;;;;;;5008027;28;20042;-84
2022/04/27 01:47:49;;;;;;;27.95;14.48;;;;;;;;;;5011343;28;20033;-85
2022/04/27 01:50:15;;;;;;;30.02;15.48;;;;;;;;;;5012155;28;20029;-84
2022/04/27 01:55:42;;;;;;;30.90;15.70;;;;;;;;;;4979697;28;20043;-84
2022/04/27 01:58:08;;;;;;;28.17;15.48;;;;;;;;;;5004820;28;20044;-84
2022/04/27 02:00:34;;;;;;;27.30;16.05;;;;;;;;;;5016818;28;20054;-84
2022/04/27 02:03:00;;;;;;;31.90;15.93;;;;;;;;;;5011007;28;20108;-83
2022/04/27 02:05:27;;;;;;;34.50;16.73;;;;;;;;;;5011715;28;20034;-85
2022/04/27 02:07:53;;;;;;;37.30;17.02;;;;;;;;;;5004820;28;20025;-85
2022/04/27 02:10:19;;;;;;;35.38;16.73;;;;;;;;;;5007108;28;20118;-85
2022/04/27 02:12:45;;;;;;;26.13;14.65;;;;;;;;;;5004500;28;20103;-86
2022/04/27 02:15:11;;;;;;;29.67;15.20;;;;;;;;;;4994550;28;20499;-85
2022/04/27 02:17:37;;;;;;;30.40;15.15;;;;;;;;;;5004009;28;20046;-85
2022/04/27 02:20:04;;;;;;;27.33;15.10;;;;;;;;;;5004713;28;20079;-85
2022/04/27 02:22:34;;;;;;;36.30;16.40;;;;;;;;;;5005949;28;20054;-85
2022/04/27 02:25:01;;;;;;;29.73;15.67;;;;;;;;;;5006482;28;20034;-86
2022/04/27 02:27:27;;;;;;;38.53;16.48;;;;;;;;;;5002654;28;20026;-85
2022/04/27 02:29:54;;;;;;;36.53;17.67;;;;;;;;;;5010775;28;20176;-85
2022/04/27 02:32:20;;;;;;;34.58;15.45;;;;;;;;;;5006223;28;20029;-85
2022/04/27 02:37:49;;;;;;;36.38;16.63;;;;;;;;;;5010539;28;20045;-84
2022/04/27 02:40:16;;;;;;;40.90;18.23;;;;;;;;;;5019886;28;20025;-84
2022/04/27 02:42:42;;;;;;;39.13;18.20;;;;;;;;;;5016964;28;20033;-84
2022/04/27 02:45:08;;;;;;;43.30;18.58;;;;;;;;;;5012437;28;20120;-88
2022/04/27 02:47:34;;;;;;;36.13;17.88;;;;;;;;;;5006017;28;20093;-85
2022/04/27 02:52:48;;;;;;;43.15;18.50;;;;;;;;;;5006307;28;20077;-85
2022/04/27 02:55:16;;;;;;;39.00;16.90;;;;;;;;;;5010270;28;20034;-85
2022/04/27 02:57:42;;;;;;;34.03;16.48;;;;;;;;;;5009009;28;20018;-85
2022/04/27 03:00:09;;;;;;;37.85;16.88;;;;;;;;;;5009819;28;20047;-85
2022/04/27 03:02:35;;;;;;;34.47;15.77;;;;;;;;;;5008113;28;20057;-85
2022/04/27 03:05:01;;;;;;;28.83;13.32;;;;;;;;;;5005965;28;20113;-86
2022/04/27 03:07:30;;;;;;;21.90;11.38;;;;;;;;;;5007832;28;20026;-85
2022/04/27 03:09:56;;;;;;;18.05;11.23;;;;;;;;;;5010502;28;20161;-86
2022/04/27 03:12:22;;;;;;;18.63;10.70;;;;;;;;;;5010679;28;20048;-85
2022/04/27 03:14:48;;;;;;;15.60;9.88;;;;;;;;;;5009399;28;20034;-84
2022/04/27 03:17:15;;;;;;;18.45;10.27;;;;;;;;;;5009445;28;20065;-83
2022/04/27 03:19:42;;;;;;;14.50;8.23;;;;;;;;;;5008003;28;20097;-84
2022/04/27 03:22:08;;;;;;;16.63;10.07;;;;;;;;;;5007486;28;20022;-85
2022/04/27 03:24:35;;;;;;;19.30;11.13;;;;;;;;;;5006473;28;20125;-84
2022/04/27 03:27:01;;;;;;;20.23;11.30;;;;;;;;;;5002348;28;20046;-84
2022/04/27 03:29:27;;;;;;;17.80;10.65;;;;;;;;;;5007895;28;20077;-84
2022/04/27 03:31:53;;;;;;;17.73;9.93;;;;;;;;;;5011772;28;20621;-84
2022/04/27 03:34:19;;;;;;;18.48;11.13;;;;;;;;;;5006007;28;20061;-89
2022/04/27 03:36:45;;;;;;;16.25;10.65;;;;;;;;;;5006193;28;20033;-85
2022/04/27 03:39:11;;;;;;;19.33;11.07;;;;;;;;;;5007351;28;20093;-83
2022/04/27 03:41:37;;;;;;;22.83;11.45;;;;;;;;;;5005403;28;20030;-85
2022/04/27 03:44:03;;;;;;;22.73;12.43;;;;;;;;;;4998018;28;20126;-86
2022/04/27 03:46:29;;;;;;;25.67;12.98;;;;;;;;;;4996512;28;20500;-85
2022/04/27 03:48:55;;;;;;;23.65;13.00;;;;;;;;;;5012370;28;20484;-85
2022/04/27 03:51:21;;;;;;;28.48;13.02;;;;;;;;;;5011451;28;20031;-84
2022/04/27 03:53:47;;;;;;;25.17;12.48;;;;;;;;;;4996441;28;20035;-84
2022/04/27 03:56:13;;;;;;;32.00;13.38;;;;;;;;;;5003945;28;20476;-85
2022/04/27 03:58:39;;;;;;;24.77;11.68;;;;;;;;;;5014867;28;20065;-86
2022/04/27 04:01:05;;;;;;;32.40;13.82;;;;;;;;;;5001990;28;20030;-86
2022/04/27 04:03:31;;;;;;;31.95;13.38;;;;;;;;;;4995582;28;20184;-86
2022/04/27 04:05:57;;;;;;;25.52;12.60;;;;;;;;;;4994496;28;20030;-85
2022/04/27 04:08:23;;;;;;;28.98;13.70;;;;;;;;;;4994180;28;20145;-85
2022/04/27 04:10:50;;;;;;;31.13;13.80;;;;;;;;;;4994705;28;20049;-86
2022/04/27 04:13:16;;;;;;;38.95;15.07;;;;;;;;;;4977759;28;20038;-85
2022/04/27 04:15:42;;;;;;;40.63;16.52;;;;;;;;;;4994385;28;20026;-85
2022/04/27 04:18:08;;;;;;;34.53;15.82;;;;;;;;;;4993196;28;20090;-84
2022/04/27 04:20:34;;;;;;;39.70;16.58;;;;;;;;;;4993084;28;20037;-86
2022/04/27 04:23:00;;;;;;;44.95;17.95;;;;;;;;;;4994037;28;20443;-85
2022/04/27 04:30:57;;;;;;;66.40;21.95;;;;;;;;;;4994788;28;20065;-86
2022/04/27 04:33:23;;;;;;;66.57;23.05;;;;;;;;;;4997102;28;20041;-84
2022/04/27 04:35:49;;;;;;;72.82;23.85;;;;;;;;;;4998554;28;20038;-85
2022/04/27 04:38:15;;;;;;;69.85;24.05;;;;;;;;;;4998927;28;20515;-85
2022/04/27 04:40:41;;;;;;;62.55;22.10;;;;;;;;;;4997776;28;20042;-84
2022/04/27 04:43:07;;;;;;;63.45;23.40;;;;;;;;;;5000482;28;20095;-86
2022/04/27 04:45:33;;;;;;;68.53;23.30;;;;;;;;;;5000413;28;20014;-86
2022/04/27 04:47:59;;;;;;;68.35;23.85;;;;;;;;;;4998993;28;20113;-86
2022/04/27 04:50:25;;;;;;;48.70;20.45;;;;;;;;;;4999185;28;20382;-85
2022/04/27 04:52:51;;;;;;;40.53;15.68;;;;;;;;;;5000889;28;20023;-85
2022/04/27 04:55:17;;;;;;;23.92;13.10;;;;;;;;;;5009267;28;20049;-85
2022/04/27 04:57:43;;;;;;;32.38;14.90;;;;;;;;;;5002389;28;20042;-85
2022/04/27 05:00:10;;;;;;;26.42;13.55;;;;;;;;;;5007769;28;20073;-85
2022/04/27 05:02:36;;;;;;;33.08;15.68;;;;;;;;;;5008948;28;20124;-83
2022/04/27 05:05:03;;;;;;;34.60;14.63;;;;;;;;;;5023192;28;20034;-85
2022/04/27 05:07:30;;;;;;;26.83;12.13;;;;;;;;;;5002577;28;20445;-83
2022/04/27 05:09:56;;;;;;;18.48;10.77;;;;;;;;;;5008977;28;20050;-85
2022/04/27 05:12:23;;;;;;;18.25;9.45;;;;;;;;;;5018597;28;20096;-85
2022/04/27 05:14:49;;;;;;;13.80;8.45;;;;;;;;;;5006002;28;20393;-85
2022/04/27 05:17:15;;;;;;;15.27;8.90;;;;;;;;;;5000578;28;20045;-85
2022/04/27 05:19:41;;;;;;;14.70;9.00;;;;;;;;;;5001276;28;20029;-84
2022/04/27 05:22:07;;;;;;;15.32;9.30;;;;;;;;;;5018584;28;20539;-84
2022/04/27 05:24:35;;;;;;;21.15;10.05;;;;;;;;;;5016300;28;20071;-85
2022/04/27 05:27:02;;;;;;;21.20;10.75;;;;;;;;;;5010423;28;20030;-84
2022/04/27 05:32:13;;;;;;;30.35;14.10;;;;;;;;;;5010863;28;20044;-85
2022/04/27 05:34:40;;;;;;;26.02;14.18;;;;;;;;;;5001269;28;20040;-84
2022/04/27 05:37:25;;;;;;;17.92;11.30;;;;;;;;;;5008100;28;20057;-85
2022/04/27 05:39:51;;;;;;;20.40;11.70;;;;;;;;;;5014738;28;20041;-85
2022/04/27 05:42:17;;;;;;;19.45;10.18;;;;;;;;;;5016880;28;20034;-84
2022/04/27 05:44:43;;;;;;;20.25;12.48;;;;;;;;;;5004110;28;20088;-84
2022/04/27 05:47:09;;;;;;;20.38;13.60;;;;;;;;;;4996424;28;20555;-83
2022/04/27 05:49:35;;;;;;;23.88;13.70;;;;;;;;;;4996829;28;20038;-84
2022/04/27 05:52:01;;;;;;;24.95;13.10;;;;;;;;;;4996882;28;20038;-84
2022/04/27 05:54:27;;;;;;;19.23;11.98;;;;;;;;;;5003450;28;20059;-85
2022/04/27 05:56:53;;;;;;;18.70;11.05;;;;;;;;;;4995435;28;20093;-85
2022/04/27 05:59:20;;;;;;;17.92;10.95;;;;;;;;;;5015899;28;20359;-84
2022/04/27 06:01:46;;;;;;;14.60;10.35;;;;;;;;;;5009620;28;20042;-84
2022/04/27 06:04:12;;;;;;;17.73;10.10;;;;;;;;;;5000259;28;20046;-84
2022/04/27 06:06:39;;;;;;;15.48;9.10;;;;;;;;;;5019146;28;20014;-84
2022/04/27 06:09:05;;;;;;;16.48;10.13;;;;;;;;;;5004921;28;20053;-84
2022/04/27 06:11:31;;;;;;;13.80;8.50;;;;;;;;;;5010689;28;20395;-84
2022/04/27 06:13:57;;;;;;;10.50;8.43;;;;;;;;;;5001198;28;20023;-84
2022/04/27 06:16:24;;;;;;;12.85;9.52;;;;;;;;;;5002130;28;20032;-84
2022/04/27 06:18:50;;;;;;;16.00;8.75;;;;;;;;;;5000092;28;20041;-86
2022/04/27 06:21:19;;;;;;;13.25;8.30;;;;;;;;;;5001526;28;20066;-83
2022/04/27 06:23:45;;;;;;;12.30;8.27;;;;;;;;;;5017991;28;20014;-84
2022/04/27 06:26:11;;;;;;;10.43;7.95;;;;;;;;;;4999844;28;20058;-83
2022/04/27 06:28:38;;;;;;;14.35;7.82;;;;;;;;;;4999259;28;20451;-84
2022/04/27 06:31:04;;;;;;;13.43;7.85;;;;;;;;;;5001858;28;20019;-84
2022/04/27 06:33:30;;;;;;;15.88;8.30;;;;;;;;;;5012884;28;20042;-84
2022/04/27 06:35:56;;;;;;;19.60;8.07;;;;;;;;;;5003240;28;20460;-84
2022/04/27 06:38:22;;;;;;;16.60;7.75;;;;;;;;;;5001056;28;20058;-84
2022/04/27 06:40:48;;;;;;;14.95;6.97;;;;;;;;;;5000980;28;20022;-83
2022/04/27 06:43:14;;;;;;;11.30;6.10;;;;;;;;;;5000595;28;20518;-84
2022/04/27 06:45:40;;;;;;;15.43;6.82;;;;;;;;;;4998827;28;20066;-84
2022/04/27 06:48:06;;;;;;;8.52;4.63;;;;;;;;;;4999137;28;20085;-84
2022/04/27 06:50:32;;;;;;;14.70;5.70;;;;;;;;;;5001019;28;20117;-83
2022/04/27 06:53:02;;;;;;;10.70;4.70;;;;;;;;;;4998734;28;20058;-83
2022/04/27 06:55:28;;;;;;;9.85;4.47;;;;;;;;;;4999499;28;20113;-82
2022/04/27 06:57:54;;;;;;;10.60;5.68;;;;;;;;;;5005074;28;20038;-83
2022/04/27 07:00:21;;;;;;;7.93;4.15;;;;;;;;;;5010660;28;20030;-83
2022/04/27 07:02:47;;;;;;;12.60;5.95;;;;;;;;;;5013152;28;20407;-84
2022/04/27 07:05:17;;;;;;;13.77;5.80;;;;;;;;;;5009959;28;20121;-84
2022/04/27 07:07:44;;;;;;;11.97;6.53;;;;;;;;;;4998785;28;20283;-84
2022/04/27 07:10:11;;;;;;;13.98;6.07;;;;;;;;;;4998204;28;20054;-82
2022/04/27 07:12:37;;;;;;;10.40;5.80;;;;;;;;;;4999998;28;20058;-83
2022/04/27 07:15:04;;;;;;;15.43;7.03;;;;;;;;;;4995557;28;20045;-84
2022/04/27 07:17:30;;;;;;;11.70;6.78;;;;;;;;;;4994706;28;20065;-83
2022/04/27 07:19:56;;;;;;;16.45;6.38;;;;;;;;;;5004310;28;20057;-83
2022/04/27 07:22:23;;;;;;;9.82;6.25;;;;;;;;;;5016223;28;20439;-84
2022/04/27 07:24:49;;;;;;;12.88;5.75;;;;;;;;;;5015736;28;20705;-85
2022/04/27 07:27:16;;;;;;;11.50;6.82;;;;;;;;;;4996405;28;20035;-84
2022/04/27 07:29:42;;;;;;;12.50;6.88;;;;;;;;;;4998932;28;20065;-84
2022/04/27 07:32:08;;;;;;;8.65;6.88;;;;;;;;;;5003526;28;20041;-83
2022/04/27 07:34:34;;;;;;;19.63;6.97;;;;;;;;;;5012266;28;20041;-83
2022/04/27 07:37:02;;;;;;;17.00;7.82;;;;;;;;;;5011727;28;20498;-84
2022/04/27 07:39:28;;;;;;;9.82;7.05;;;;;;;;;;5011956;28;20053;-83
2022/04/27 07:41:55;;;;;;;12.35;7.07;;;;;;;;;;4994590;28;20492;-83
2022/04/27 07:44:21;;;;;;;11.70;7.05;;;;;;;;;;4993879;28;20105;-83
2022/04/27 07:46:50;;;;;;;12.60;6.97;;;;;;;;;;4995457;28;20030;-83
2022/04/27 07:49:20;;;;;;;14.43;7.30;;;;;;;;;;5011303;28;20109;-82
2022/04/27 07:51:47;;;;;;;13.88;7.07;;;;;;;;;;4998281;28;20076;-82
2022/04/27 07:54:13;;;;;;;12.10;7.22;;;;;;;;;;4997418;28;20023;-83
2022/04/27 07:56:40;;;;;;;12.80;6.85;;;;;;;;;;5009907;28;20041;-82
2022/04/27 07:59:06;;;;;;;13.52;7.28;;;;;;;;;;5016943;28;20025;-82
2022/04/27 08:01:33;;;;;;;15.70;6.85;;;;;;;;;;5018250;28;20030;-81
2022/04/27 08:03:59;;;;;;;20.23;7.10;;;;;;;;;;5018614;28;20061;-82
2022/04/27 08:06:25;;;;;;;9.38;6.57;;;;;;;;;;5014952;28;20037;-82
2022/04/27 08:08:51;;;;;;;17.55;7.47;;;;;;;;;;5020723;28;20046;-82
2022/04/27 08:11:17;;;;;;;14.55;7.20;;;;;;;;;;5016631;28;20040;-82
2022/04/27 08:13:43;;;;;;;13.02;7.15;;;;;;;;;;5004366;28;20097;-82
2022/04/27 08:16:11;;;;;;;13.00;6.68;;;;;;;;;;4999396;28;20051;-81
2022/04/27 08:18:38;;;;;;;11.52;7.38;;;;;;;;;;4998985;28;20042;-82
2022/04/27 08:21:16;;;;;;;13.50;7.93;;;;;;;;;;4997268;28;20060;-82
2022/04/27 08:23:46;;;;;;;12.63;6.32;;;;;;;;;;5017586;28;20029;-82
2022/04/27 08:26:13;;;;;;;10.95;6.55;;;;;;;;;;5016590;28;20058;-81
2022/04/27 08:28:39;;;;;;;12.05;5.45;;;;;;;;;;4998707;28;20036;-83
2022/04/27 08:31:06;;;;;;;9.90;4.40;;;;;;;;;;5000784;28;20032;-80
2022/04/27 08:33:32;;;;;;;6.28;3.20;;;;;;;;;;4999890;28;20038;-82
2022/04/27 08:35:59;;;;;;;11.38;4.28;;;;;;;;;;5009874;28;20125;-82
2022/04/27 08:38:25;;;;;;;8.35;4.40;;;;;;;;;;5000755;28;20057;-81
2022/04/27 08:40:51;;;;;;;11.52;4.35;;;;;;;;;;5000571;28;20052;-82
2022/04/27 08:43:17;;;;;;;8.45;3.97;;;;;;;;;;4999588;28;20089;-82
2022/04/27 08:45:44;;;;;;;8.15;3.88;;;;;;;;;;5004831;28;20030;-81
2022/04/27 08:48:11;;;;;;;9.80;4.30;;;;;;;;;;5001002;28;20030;-83
2022/04/27 08:50:37;;;;;;;6.38;3.08;;;;;;;;;;5005008;28;20026;-81
2022/04/27 08:53:04;;;;;;;7.78;2.88;;;;;;;;;;4999457;28;20026;-82
2022/04/27 08:55:30;;;;;;;10.70;3.58;;;;;;;;;;4996568;28;20046;-81
2022/04/27 08:58:08;;;;;;;10.48;3.70;;;;;;;;;;5000747;28;20075;-82
2022/04/27 09:00:34;;;;;;;6.75;4.00;;;;;;;;;;4998222;28;20426;-81
2022/04/27 09:03:19;;;;;;;5.40;2.33;;;;;;;;;;4999340;28;20117;-82
2022/04/27 09:05:50;;;;;;;7.38;1.83;;;;;;;;;;4997715;28;20030;-82
2022/04/27 09:08:16;;;;;;;6.10;2.08;;;;;;;;;;4996401;28;20049;-82
2022/04/27 09:10:42;;;;;;;7.85;2.08;;;;;;;;;;5003000;28;20042;-80
2022/04/27 09:13:08;;;;;;;7.93;2.30;;;;;;;;;;4996736;28;20076;-81
2022/04/27 09:15:34;;;;;;;6.32;2.35;;;;;;;;;;5003771;28;20035;-82
2022/04/27 09:20:50;;;;;;;7.10;2.45;;;;;;;;;;5002342;28;20823;-81
2022/04/27 09:23:16;;;;;;;;;;;;;;;;;;5007847;28;20039;-80
2022/04/27 09:25:42;;;;;;;5.13;2.08;;;;;;;;;;5003711;28;19932;-81
2022/04/27 09:28:09;;;;;;;6.50;2.38;;;;;;;;;;4999971;28;20022;-80
2022/04/27 09:30:35;;;;;;;6.45;2.40;;;;;;;;;;5006571;28;20034;-82
2022/04/27 09:33:01;;;;;;;8.45;1.90;;;;;;;;;;5001940;28;20021;-80
2022/04/27 09:35:32;;;;;;;7.03;2.50;;;;;;;;;;5019028;28;20029;-82
2022/04/27 09:38:10;;;;;;;3.90;1.90;;;;;;;;;;5009902;28;20037;-82
2022/04/27 09:40:43;;;;;;;8.25;2.80;;;;;;;;;;4999753;28;20042;-81
2022/04/27 09:43:09;;;;;;;5.45;2.45;;;;;;;;;;5012113;28;20055;-80
2022/04/27 09:45:35;;;;;;;9.15;2.83;;;;;;;;;;5008412;28;20037;-81
2022/04/27 09:48:03;;;;;;;12.02;3.83;;;;;;;;;;5011176;28;20030;-81
2022/04/27 09:50:46;;;;;;;6.07;2.63;;;;;;;;;;5005132;28;20385;-82
2022/04/27 09:53:12;;;;;;;10.52;2.60;;;;;;;;;;4998792;28;20085;-83
2022/04/27 09:55:49;;;;;;;4.55;2.70;;;;;;;;;;4998334;28;20053;-82
2022/04/27 09:58:16;;;;;;;7.03;2.72;;;;;;;;;;5009491;28;20026;-82
2022/04/27 10:00:43;;;;;;;5.22;2.83;;;;;;;;;;5005492;28;20026;-82
2022/04/27 10:03:11;;;;;;;5.80;2.60;;;;;;;;;;5004700;28;20069;-82
2022/04/27 10:05:37;;;;;;;5.03;2.80;;;;;;;;;;5006215;28;20046;-82
2022/04/27 10:08:04;;;;;;;5.05;2.80;;;;;;;;;;5005405;28;20018;-82
2022/04/27 10:10:31;;;;;;;4.22;2.40;;;;;;;;;;5009189;28;20054;-83
2022/04/27 10:12:58;;;;;;;5.80;2.72;;;;;;;;;;5005227;28;20377;-81
2022/04/27 10:15:25;;;;;;;5.72;3.17;;;;;;;;;;5006820;28;20103;-80
2022/04/27 10:17:51;;;;;;;4.35;2.63;;;;;;;;;;5010512;28;20033;-80
2022/04/27 10:20:30;;;;;;;6.53;3.03;;;;;;;;;;5006277;28;20069;-83
2022/04/27 10:23:19;;;;;;;10.27;4.05;;;;;;;;;;5007450;28;20116;-84
2022/04/27 10:26:15;;;;;;;7.63;3.20;;;;;;;;;;4998381;28;20128;-82
2022/04/27 10:28:50;;;;;;;8.27;2.83;;;;;;;;;;4992114;28;20042;-81
2022/04/27 10:31:34;;;;;;;6.82;3.47;;;;;;;;;;5003709;28;20207;-80
2022/04/27 10:34:10;;;;;;;14.30;3.67;;;;;;;;;;5001215;28;20025;-80
2022/04/27 10:36:38;;;;;;;9.65;3.38;;;;;;;;;;5003724;28;20105;-80
2022/04/27 10:39:10;;;;;;;7.80;3.13;;;;;;;;;;5001756;28;20125;-81
2022/04/27 10:41:36;;;;;;;4.45;2.40;;;;;;;;;;4995292;28;20030;-80
2022/04/27 10:44:02;;;;;;;6.05;3.33;;;;;;;;;;4997967;28;20030;-81
2022/04/27 10:46:44;;;;;;;4.25;2.72;;;;;;;;;;5001185;28;20053;-82
2022/04/27 10:49:24;;;;;;;6.65;2.63;;;;;;;;;;5004705;28;20036;-84
2022/04/27 10:52:03;;;;;;;7.45;2.75;;;;;;;;;;4999703;28;20026;-80
2022/04/27 10:54:39;;;;;;;7.22;2.72;;;;;;;;;;5000762;28;20531;-80
2022/04/27 10:57:18;;;;;;;7.57;2.38;;;;;;;;;;4999677;28;20073;-79
2022/04/27 10:59:49;;;;;;;5.22;2.47;;;;;;;;;;4998944;28;20111;-79
2022/04/27 11:02:34;;;;;;;7.63;2.63;;;;;;;;;;4999591;28;20021;-81
2022/04/27 11:05:13;;;;;;;4.40;2.33;;;;;;;;;;4996211;28;20077;-80
2022/04/27 11:07:40;;;;;;;7.65;2.72;;;;;;;;;;5002022;28;20025;-81
2022/04/27 11:10:10;;;;;;;5.10;2.75;;;;;;;;;;5000044;28;20132;-79
2022/04/27 11:12:37;;;;;;;10.38;2.80;;;;;;;;;;4999888;28;20046;-79
2022/04/27 11:15:04;;;;;;;6.47;2.67;;;;;;;;;;4998309;28;20078;-79
2022/04/27 11:17:30;;;;;;;7.20;2.67;;;;;;;;;;4990801;28;20034;-79
2022/04/27 11:19:56;;;;;;;6.70;2.40;;;;;;;;;;5000019;28;20021;-81
2022/04/27 11:22:22;;;;;;;10.18;2.90;;;;;;;;;;5000492;28;20030;-77
2022/04/27 11:24:49;;;;;;;12.95;2.75;;;;;;;;;;4995056;28;20065;-78
2022/04/27 11:27:26;;;;;;;12.55;3.10;;;;;;;;;;4997157;28;20029;-80
2022/04/27 11:29:52;;;;;;;12.18;3.33;;;;;;;;;;4997559;28;20030;-79
2022/04/27 11:32:19;;;;;;;11.98;3.63;;;;;;;;;;4996001;28;20053;-78
2022/04/27 11:34:48;;;;;;;12.35;3.05;;;;;;;;;;4999870;28;20029;-79
2022/04/27 11:37:16;;;;;;;11.90;3.30;;;;;;;;;;4995967;28;20089;-78
2022/04/27 11:39:42;;;;;;;15.30;3.75;;;;;;;;;;4993253;28;20042;-79
2022/04/27 11:42:10;;;;;;;9.23;3.00;;;;;;;;;;4999913;28;20026;-79
2022/04/27 11:44:36;;;;;;;12.30;3.15;;;;;;;;;;5003564;28;20037;-79
2022/04/27 11:47:03;;;;;;;11.68;2.92;;;;;;;;;;5012484;28;20033;-80
2022/04/27 11:49:29;;;;;;;13.10;3.13;;;;;;;;;;5011192;28;20073;-81
2022/04/27 11:51:55;;;;;;;8.77;2.60;;;;;;;;;;5012035;28;20440;-77
2022/04/27 11:54:28;;;;;;;13.00;2.60;;;;;;;;;;5004106;28;20034;-82
2022/04/27 11:56:59;;;;;;;9.23;2.63;;;;;;;;;;5013878;28;20112;-78
2022/04/27 11:59:26;;;;;;;10.57;3.10;;;;;;;;;;5011831;28;20038;-79
2022/04/27 12:01:52;;;;;;;10.07;2.60;;;;;;;;;;4998773;28;20034;-78
2022/04/27 12:04:19;;;;;;;15.48;3.15;;;;;;;;;;4996651;28;20081;-80
2022/04/27 12:06:45;;;;;;;9.73;3.45;;;;;;;;;;4995714;28;20126;-80
2022/04/27 12:09:18;;;;;;;17.40;3.22;;;;;;;;;;4995731;28;20129;-80
2022/04/27 12:11:44;;;;;;;11.70;3.22;;;;;;;;;;4998631;28;20033;-80
2022/04/27 12:14:10;;;;;;;12.70;2.60;;;;;;;;;;5005313;28;20064;-78
2022/04/27 12:16:41;;;;;;;15.18;3.08;;;;;;;;;;5002616;28;20057;-84
2022/04/27 12:19:07;;;;;;;;;;;;;;;;;;5004651;28;20048;-81
2022/04/27 12:21:33;;;;;;;11.52;3.00;;;;;;;;;;5002134;28;20327;-78
2022/04/27 12:24:00;;;;;;;8.45;2.83;;;;;;;;;;5001528;28;20035;-80
2022/04/27 12:26:26;;;;;;;10.55;2.95;;;;;;;;;;5011526;28;20040;-81
2022/04/27 12:28:52;;;;;;;8.05;2.53;;;;;;;;;;5004036;28;20026;-84
2022/04/27 12:31:24;;;;;;;12.73;3.38;;;;;;;;;;4994994;28;20038;-82
2022/04/27 12:33:51;;;;;;;30.45;16.60;;;;;;;;;;4993255;28;20110;-81
2022/04/27 12:39:20;;;;;;;8.85;3.05;;;;;;;;;;4995212;28;20041;-80
2022/04/27 12:41:47;;;;;;;14.15;3.10;;;;;;;;;;4991425;28;20034;-79
2022/04/27 12:44:24;;;;;;;9.30;2.72;;;;;;;;;;5000200;28;20030;-81
2022/04/27 12:47:00;;;;;;;14.77;3.30;;;;;;;;;;5003796;28;20022;-81
2022/04/27 12:49:26;;;;;;;13.00;3.63;;;;;;;;;;5008927;28;20110;-80
2022/04/27 12:51:52;;;;;;;9.07;3.28;;;;;;;;;;5014553;28;20415;-82
2022/04/27 12:54:19;;;;;;;9.70;2.88;;;;;;;;;;5005503;28;20049;-84
2022/04/27 12:56:45;;;;;;;12.00;2.90;;;;;;;;;;5003922;28;20121;-82
2022/04/27 12:59:12;;;;;;;16.52;3.42;;;;;;;;;;4980853;28;20105;-81
2022/04/27 13:01:39;;;;;;;9.90;3.17;;;;;;;;;;5013523;28;20037;-82
2022/04/27 13:04:06;;;;;;;10.63;3.45;;;;;;;;;;5019189;28;20024;-80
2022/04/27 13:06:32;;;;;;;14.43;3.55;;;;;;;;;;5007435;28;20032;-80
2022/04/27 13:11:57;;;;;;;13.02;3.60;;;;;;;;;;5008248;28;20133;-83
2022/04/27 13:14:27;;;;;;;12.20;3.40;;;;;;;;;;5010418;28;20046;-81
2022/04/27 13:16:54;;;;;;;15.30;3.40;;;;;;;;;;5017578;28;20468;-80
2022/04/27 13:19:20;;;;;;;11.13;3.22;;;;;;;;;;5002172;28;20328;-83
2022/04/27 13:21:47;;;;;;;9.73;3.00;;;;;;;;;;5002732;28;20049;-80
2022/04/27 13:24:13;;;;;;;14.88;4.13;;;;;;;;;;5005885;28;20547;-83
2022/04/27 13:26:39;;;;;;;8.63;3.08;;;;;;;;;;5018530;28;20041;-81
2022/04/27 13:29:05;;;;;;;10.40;3.13;;;;;;;;;;5012758;28;20034;-81
2022/04/27 13:31:33;;;;;;;10.20;3.20;;;;;;;;;;5009800;28;20439;-79
2022/04/27 13:33:59;;;;;;;9.52;3.53;;;;;;;;;;4999224;28;20507;-80
2022/04/27 13:36:25;;;;;;;11.70;3.42;;;;;;;;;;4998315;28;20066;-79
2022/04/27 13:38:51;;;;;;;11.98;3.00;;;;;;;;;;5010311;28;20127;-79
2022/04/27 13:41:18;;;;;;;10.25;3.15;;;;;;;;;;5013490;28;20025;-82
2022/04/27 13:43:44;;;;;;;10.27;3.20;;;;;;;;;;5010218;28;20364;-84
2022/04/27 13:46:10;;;;;;;9.70;3.15;;;;;;;;;;5009013;28;20111;-81
2022/04/27 13:48:36;;;;;;;12.43;3.30;;;;;;;;;;5009694;28;20034;-80
2022/04/27 13:51:02;;;;;;;11.52;2.83;;;;;;;;;;5007597;28;20535;-80
2022/04/27 13:53:29;;;;;;;17.25;3.58;;;;;;;;;;5006502;28;20105;-80
2022/04/27 13:55:55;;;;;;;12.55;3.22;;;;;;;;;;5007402;28;20030;-80
2022/04/27 13:58:21;;;;;;;9.73;3.67;;;;;;;;;;4996109;28;20026;-82
2022/04/27 14:00:48;;;;;;;10.73;2.95;;;;;;;;;;4999454;28;20029;-82
2022/04/27 14:03:15;;;;;;;9.75;2.90;;;;;;;;;;5003866;28;20038;-79
2022/04/27 14:05:41;;;;;;;11.02;3.53;;;;;;;;;;5002163;28;20168;-79
2022/04/27 14:08:07;;;;;;;14.10;3.20;;;;;;;;;;5001195;28;20065;-79
2022/04/27 14:10:33;;;;;;;13.70;3.25;;;;;;;;;;5010206;28;20060;-79
2022/04/27 14:13:13;;;;;;;10.48;3.13;;;;;;;;;;5001556;28;20034;-82
2022/04/27 14:15:40;;;;;;;12.00;3.10;;;;;;;;;;4998634;28;20124;-82
2022/04/27 14:18:15;;;;;;;11.35;3.20;;;;;;;;;;5005023;28;20030;-85
2022/04/27 14:20:45;;;;;;;12.40;3.40;;;;;;;;;;5003072;28;20041;-84
2022/04/27 14:23:12;;;;;;;9.63;2.80;;;;;;;;;;5014315;28;20026;-79
2022/04/27 14:25:40;;;;;;;12.13;3.28;;;;;;;;;;5005623;28;20033;-79
2022/04/27 14:28:06;;;;;;;12.40;2.72;;;;;;;;;;5004506;28;20082;-81
2022/04/27 14:30:32;;;;;;;27.92;3.83;;;;;;;;;;5006875;28;20048;-80
2022/04/27 14:32:58;;;;;;;16.85;3.42;;;;;;;;;;4999062;28;20116;-82
2022/04/27 14:35:24;;;;;;;9.35;3.28;;;;;;;;;;5000135;28;20061;-81
2022/04/27 14:37:50;;;;;;;12.63;4.10;;;;;;;;;;5007097;28;20460;-83
2022/04/27 14:40:17;;;;;;;12.20;3.30;;;;;;;;;;5008225;28;21612;-82
2022/04/27 14:42:44;;;;;;;13.13;3.55;;;;;;;;;;4998818;28;20035;-81
2022/04/27 14:45:11;;;;;;;14.05;3.95;;;;;;;;;;5005491;28;20033;-81
2022/04/27 14:47:37;;;;;;;14.50;3.45;;;;;;;;;;5006480;28;20041;-81
2022/04/27 14:50:04;;;;;;;10.02;3.08;;;;;;;;;;5002799;28;20058;-79
2022/04/27 14:52:31;;;;;;;17.50;3.90;;;;;;;;;;5004919;28;20160;-80
2022/04/27 14:54:59;;;;;;;21.50;4.07;;;;;;;;;;4998429;28;20396;-80